Wapping, Connecticut
Current Conditions -  °F | °C
As of 12:19 AM on Thursday 27 Nov 2014 (Local Time) from KHFD Reporting Station
Light Snow Light Snow  
Wind Chill: -3°   Ceiling: 2300
Heat Index:   Visibility: 4mi
Dew Point: -1°   Wind: 9mph
Humidity: 89%   Direction: 340°NNW
Pressure: 29.77"   Gusts: NA
Location:  41.8353°N, 72.5722°W
Report Text: KHFD 270519Z AUTO 34008KT 4SM -SN BR SCT007 SCT012 OVC023 01/M01 A2977 RMK AO2 P0001 T00111006
Loading
Personal Weather Stations






























Interactive Weather Map New forecast layout! Learn more

10-Day Weather Forecast

Advertisements
Track Severe Weather on mobile